createdAt,value
2022-11-10T00:00:03.259Z,1011.0
2022-11-10T00:15:02.691Z,1011.2
2022-11-10T00:30:03.277Z,1011.3
2022-11-10T00:45:02.564Z,1011.5
2022-11-10T01:00:03.015Z,1011.6
2022-11-10T01:15:02.457Z,1011.6
2022-11-10T01:30:02.866Z,1011.9
2022-11-10T01:45:02.293Z,1012.1
2022-11-10T02:00:02.751Z,1012.2
2022-11-10T02:15:03.305Z,1012.4
2022-11-10T02:30:02.626Z,1012.4
2022-11-10T02:45:03.069Z,1012.6
2022-11-10T03:00:02.494Z,1012.7
2022-11-10T03:15:02.910Z,1012.9
2022-11-10T03:30:02.369Z,1013.1
2022-11-10T03:45:02.798Z,1013.0
2022-11-10T04:00:03.325Z,1013.4
2022-11-10T04:15:02.662Z,1013.3
2022-11-10T04:30:03.327Z,1013.7
2022-11-10T04:45:02.551Z,1013.9
2022-11-10T05:00:02.969Z,1014.1
2022-11-10T05:15:02.432Z,1014.5
2022-11-10T05:30:02.863Z,1014.7
2022-11-10T05:45:02.344Z,1014.9
2022-11-10T06:00:02.726Z,1014.9
2022-11-10T06:15:03.351Z,1014.8
2022-11-10T06:30:02.632Z,1015.2
2022-11-10T06:45:03.070Z,1015.4
2022-11-10T07:00:02.507Z,1015.7
2022-11-10T07:15:02.930Z,1015.9
2022-11-10T07:30:02.381Z,1016.2
2022-11-10T07:45:02.819Z,1016.4
2022-11-10T08:00:02.376Z,1016.8
2022-11-10T08:15:02.691Z,1016.9
2022-11-10T08:30:03.117Z,1016.9
2022-11-10T08:45:02.560Z,1017.4
2022-11-10T09:00:03.022Z,1017.5
2022-11-10T09:15:02.434Z,1017.5
2022-11-10T09:30:02.850Z,1017.7
2022-11-10T09:45:02.388Z,1018.0
2022-11-10T10:00:02.715Z,1018.1
2022-11-10T10:15:03.403Z,1018.0
2022-11-10T10:30:02.603Z,1018.1
2022-11-10T10:45:03.135Z,1018.4
2022-11-10T11:00:02.454Z,1018.5
2022-11-10T11:15:02.893Z,1018.5
2022-11-10T11:30:02.423Z,1018.6
2022-11-10T11:45:02.783Z,1018.6
2022-11-10T12:00:03.432Z,1018.9
2022-11-10T12:15:02.647Z,1019.0
2022-11-10T12:30:03.087Z,1019.0
2022-11-10T12:45:02.521Z,1019.2
2022-11-10T13:00:02.944Z,1019.2
2022-11-10T13:15:02.447Z,1019.3
2022-11-10T13:30:02.825Z,1019.4
2022-11-10T13:45:03.454Z,1019.5
2022-11-10T14:00:02.719Z,1019.6
2022-11-10T14:15:03.154Z,1019.6
2022-11-10T14:30:02.606Z,1019.6
2022-11-10T14:45:03.013Z,1019.7
2022-11-10T15:00:02.469Z,1019.6
2022-11-10T15:15:02.905Z,1019.8
2022-11-10T15:30:02.464Z,1020.1
2022-11-10T15:45:02.765Z,1020.0
2022-11-10T16:00:03.321Z,1020.2
2022-11-10T16:15:02.657Z,1020.5
2022-11-10T16:30:03.066Z,1020.6
2022-11-10T16:45:02.541Z,1020.9
2022-11-10T17:00:02.979Z,1021.0
2022-11-10T17:15:02.507Z,1021.0
2022-11-10T17:30:02.866Z,1020.9
2022-11-10T17:45:02.501Z,1021.0
2022-11-10T18:00:02.753Z,1021.2
2022-11-10T18:15:03.208Z,1021.1
2022-11-10T18:30:02.623Z,1021.3
2022-11-10T18:45:03.062Z,1021.4
2022-11-10T19:00:02.514Z,1021.2
2022-11-10T19:15:02.946Z,1021.1
2022-11-10T19:30:02.504Z,1021.3
2022-11-10T19:45:02.808Z,1021.2
2022-11-10T20:00:03.256Z,1021.4
2022-11-10T20:15:02.692Z,1021.3
2022-11-10T20:30:03.120Z,1021.7
2022-11-10T20:45:02.577Z,1021.9
2022-11-10T21:00:02.984Z,1021.9
2022-11-10T21:15:02.550Z,1022.1
2022-11-10T21:30:02.856Z,1022.4
2022-11-10T21:45:02.465Z,1022.2
2022-11-10T22:00:02.721Z,1022.3
2022-11-10T22:15:03.160Z,1022.2
2022-11-10T22:30:02.606Z,1022.4
2022-11-10T22:45:03.040Z,1022.7
2022-11-10T23:00:02.555Z,1022.9
2022-11-10T23:15:01.915Z,1023.0
2022-11-10T23:30:02.560Z,1022.9
2022-11-10T23:45:02.820Z,1022.7
